createdAt,value
2018-03-30T00:00:42.792Z,11.30
2018-03-30T00:01:42.652Z,11.00
2018-03-30T00:02:42.554Z,10.90
2018-03-30T00:03:42.460Z,11.20
2018-03-30T00:04:42.355Z,11.30
2018-03-30T00:05:42.258Z,10.00
2018-03-30T00:06:42.190Z,10.60
2018-03-30T00:07:42.058Z,10.60
2018-03-30T00:08:41.960Z,10.00
2018-03-30T00:09:41.859Z,10.30
2018-03-30T00:10:41.760Z,10.40
2018-03-30T00:11:41.695Z,11.00
2018-03-30T00:12:41.563Z,9.80
2018-03-30T00:13:41.474Z,10.20
2018-03-30T00:14:41.368Z,10.60
2018-03-30T00:15:41.272Z,10.00
2018-03-30T00:16:41.197Z,10.10
2018-03-30T00:17:41.066Z,10.40
2018-03-30T00:18:40.966Z,10.90
2018-03-30T00:19:40.868Z,9.00
2018-03-30T00:20:40.771Z,9.30
2018-03-30T00:21:40.705Z,9.90
2018-03-30T00:22:40.664Z,9.30
2018-03-30T00:23:40.470Z,9.80
2018-03-30T00:24:40.372Z,9.70
2018-03-30T00:25:40.275Z,9.60
2018-03-30T00:26:40.204Z,9.70
2018-03-30T00:27:40.077Z,8.50
2018-03-30T00:28:39.978Z,8.90
2018-03-30T00:29:39.971Z,9.00
2018-03-30T00:30:39.777Z,8.80
2018-03-30T00:31:39.716Z,9.80
2018-03-30T00:32:39.600Z,10.00
2018-03-30T00:33:39.480Z,9.50
2018-03-30T00:34:39.384Z,9.90
2018-03-30T00:35:39.285Z,9.70
2018-03-30T00:36:39.306Z,10.00
2018-03-30T00:37:39.084Z,9.50
2018-03-30T00:38:38.982Z,9.50
2018-03-30T00:39:38.937Z,9.30
2018-03-30T00:40:38.783Z,9.30
2018-03-30T00:41:38.719Z,9.00
2018-03-30T00:42:38.590Z,9.20
2018-03-30T00:43:38.585Z,9.20
2018-03-30T00:44:38.391Z,8.70
2018-03-30T00:45:38.294Z,9.10
2018-03-30T00:46:38.219Z,9.30
2018-03-30T00:47:38.095Z,9.70
2018-03-30T00:48:37.989Z,9.80
2018-03-30T00:49:37.890Z,9.40
2018-03-30T00:50:37.886Z,8.80
2018-03-30T00:51:37.721Z,8.40
2018-03-30T00:52:37.590Z,9.30
2018-03-30T00:53:37.492Z,10.30
2018-03-30T00:54:37.394Z,10.50
2018-03-30T00:55:37.295Z,11.20
2018-03-30T00:56:37.226Z,9.50
2018-03-30T00:57:37.194Z,9.30
2018-03-30T00:58:36.995Z,9.80
2018-03-30T00:59:36.897Z,10.10
2018-03-30T01:00:36.795Z,9.40
2018-03-30T01:01:36.729Z,9.90
2018-03-30T01:02:36.599Z,9.60
2018-03-30T01:03:36.495Z,10.10
2018-03-30T01:04:36.498Z,9.80
2018-03-30T01:05:36.300Z,10.00
2018-03-30T01:06:36.232Z,10.00
2018-03-30T01:07:36.098Z,9.50
2018-03-30T01:08:36.003Z,10.00
2018-03-30T01:09:35.900Z,10.80
2018-03-30T01:10:35.801Z,10.30
2018-03-30T01:11:35.795Z,10.10
2018-03-30T01:12:35.635Z,10.10
2018-03-30T01:13:35.502Z,10.60
2018-03-30T01:14:35.404Z,10.50
2018-03-30T01:15:35.303Z,10.20
2018-03-30T01:16:35.206Z,11.00
2018-03-30T01:17:35.134Z,9.70
2018-03-30T01:18:35.097Z,10.30
2018-03-30T01:19:34.906Z,10.80
2018-03-30T01:20:34.811Z,10.80
2018-03-30T01:21:34.707Z,10.20
2018-03-30T01:22:34.636Z,11.00
2018-03-30T01:23:34.506Z,10.40
2018-03-30T01:24:34.412Z,10.90
2018-03-30T01:25:34.397Z,10.70
2018-03-30T01:26:34.209Z,10.20
2018-03-30T01:27:34.142Z,10.90
2018-03-30T01:28:34.007Z,11.10
2018-03-30T01:29:33.909Z,10.70
2018-03-30T01:30:33.808Z,9.90
2018-03-30T01:31:33.711Z,11.60
2018-03-30T01:32:33.739Z,10.50
2018-03-30T01:33:33.513Z,10.10
2018-03-30T01:34:33.413Z,10.50
2018-03-30T01:35:33.312Z,11.80
2018-03-30T01:36:33.214Z,10.00
2018-03-30T01:37:33.145Z,9.90
2018-03-30T01:38:33.012Z,10.60
2018-03-30T01:39:33.017Z,10.50
2018-03-30T01:40:32.812Z,10.80
2018-03-30T01:41:32.716Z,10.10
2018-03-30T01:42:32.644Z,11.20
2018-03-30T01:43:32.512Z,11.40
2018-03-30T01:44:32.412Z,11.00
2018-03-30T01:45:32.315Z,10.90
2018-03-30T01:46:32.214Z,12.00
2018-03-30T01:47:32.147Z,12.10
2018-03-30T01:48:32.014Z,12.60
2018-03-30T01:49:31.926Z,13.00
2018-03-30T01:50:31.819Z,11.30
2018-03-30T01:51:31.720Z,11.60
2018-03-30T01:52:31.649Z,12.10
2018-03-30T01:53:31.517Z,10.80
2018-03-30T01:54:31.415Z,11.50
2018-03-30T01:55:31.320Z,11.30
2018-03-30T01:56:31.221Z,10.80
2018-03-30T01:57:31.152Z,11.30
2018-03-30T01:58:31.032Z,10.90
2018-03-30T01:59:30.922Z,11.00
2018-03-30T02:00:30.820Z,10.50
2018-03-30T02:01:30.730Z,10.70
2018-03-30T02:02:30.655Z,11.40
2018-03-30T02:03:30.524Z,10.60
2018-03-30T02:04:30.427Z,10.80
2018-03-30T02:05:30.325Z,10.90
2018-03-30T02:06:30.227Z,11.70
2018-03-30T02:07:30.161Z,10.60
2018-03-30T02:08:30.028Z,10.90
2018-03-30T02:09:29.929Z,10.60
2018-03-30T02:10:29.833Z,11.30
2018-03-30T02:11:29.732Z,10.80
2018-03-30T02:12:29.662Z,11.20
2018-03-30T02:13:29.532Z,11.00
2018-03-30T02:14:29.433Z,11.50
2018-03-30T02:15:29.335Z,11.50
2018-03-30T02:16:29.233Z,12.80
2018-03-30T02:17:29.169Z,12.90
2018-03-30T02:18:29.035Z,13.30
2018-03-30T02:19:28.937Z,14.10
2018-03-30T02:20:28.839Z,13.70
2018-03-30T02:21:28.742Z,14.30
2018-03-30T02:22:28.670Z,14.40
2018-03-30T02:23:28.541Z,14.00
2018-03-30T02:24:28.443Z,14.30
2018-03-30T02:25:28.340Z,13.90
2018-03-30T02:26:28.242Z,14.30
2018-03-30T02:27:28.147Z,13.40
2018-03-30T02:28:28.076Z,13.20
2018-03-30T02:29:27.945Z,13.50
2018-03-30T02:30:27.847Z,13.50
2018-03-30T02:31:27.746Z,13.60
2018-03-30T02:32:27.647Z,13.80
2018-03-30T02:33:27.579Z,14.50
2018-03-30T02:34:27.450Z,14.40
2018-03-30T02:35:27.357Z,14.70
2018-03-30T02:36:27.255Z,13.80
2018-03-30T02:37:27.151Z,14.50
2018-03-30T02:38:27.078Z,14.80
2018-03-30T02:39:26.951Z,14.10
2018-03-30T02:40:26.852Z,14.80
2018-03-30T02:41:26.752Z,14.80
2018-03-30T02:42:26.708Z,13.50
2018-03-30T02:43:26.588Z,13.50
2018-03-30T02:44:26.456Z,13.70
2018-03-30T02:45:26.399Z,13.80
2018-03-30T02:46:26.256Z,13.50
2018-03-30T02:47:26.156Z,14.10
2018-03-30T02:48:26.088Z,12.90
2018-03-30T02:49:25.960Z,13.40
2018-03-30T02:50:25.859Z,13.20
2018-03-30T02:51:25.758Z,12.70
2018-03-30T02:52:25.659Z,12.90
2018-03-30T02:53:25.591Z,12.40
2018-03-30T02:54:25.508Z,13.40
2018-03-30T02:55:25.453Z,12.80
2018-03-30T02:56:25.266Z,12.30
2018-03-30T02:57:25.166Z,11.90
2018-03-30T02:58:25.095Z,12.60
2018-03-30T02:59:24.963Z,12.90
2018-03-30T03:00:24.864Z,12.90
2018-03-30T03:01:24.771Z,12.80
2018-03-30T03:02:24.669Z,12.70
2018-03-30T03:03:24.597Z,12.30
2018-03-30T03:04:24.464Z,12.90
2018-03-30T03:05:24.369Z,12.60
2018-03-30T03:06:24.270Z,12.30
2018-03-30T03:07:24.168Z,12.70
2018-03-30T03:08:24.102Z,12.80
2018-03-30T03:09:24.065Z,12.20
2018-03-30T03:10:23.869Z,12.30
2018-03-30T03:11:23.772Z,13.20
2018-03-30T03:12:23.673Z,12.20
2018-03-30T03:13:23.606Z,12.50
2018-03-30T03:14:23.472Z,12.50
2018-03-30T03:15:23.373Z,12.60
2018-03-30T03:16:23.370Z,11.40
2018-03-30T03:17:23.177Z,12.00
2018-03-30T03:18:23.106Z,12.30
2018-03-30T03:19:22.979Z,11.40
2018-03-30T03:20:22.879Z,12.30
2018-03-30T03:21:22.780Z,12.30
2018-03-30T03:22:22.680Z,12.30
2018-03-30T03:23:22.709Z,12.40
2018-03-30T03:24:22.486Z,12.10
2018-03-30T03:25:22.383Z,11.80
2018-03-30T03:26:22.284Z,11.70
2018-03-30T03:27:22.186Z,11.50
2018-03-30T03:28:22.089Z,11.70
2018-03-30T03:29:22.021Z,11.30
2018-03-30T03:30:21.890Z,11.30
2018-03-30T03:31:21.799Z,11.80
2018-03-30T03:32:21.692Z,11.30
2018-03-30T03:33:21.594Z,11.20
2018-03-30T03:34:21.522Z,12.00
2018-03-30T03:35:21.394Z,11.80
2018-03-30T03:36:21.296Z,11.80
2018-03-30T03:37:21.196Z,12.00
2018-03-30T03:38:21.101Z,12.50
2018-03-30T03:39:21.027Z,11.90
2018-03-30T03:40:20.897Z,12.50
2018-03-30T03:41:20.800Z,12.80
2018-03-30T03:42:20.700Z,12.30
2018-03-30T03:43:20.610Z,11.80
2018-03-30T03:44:20.536Z,12.80
2018-03-30T03:45:20.402Z,12.70
2018-03-30T03:46:20.404Z,12.60
2018-03-30T03:47:20.206Z,12.80
2018-03-30T03:48:20.106Z,12.90
2018-03-30T03:49:20.036Z,12.30
2018-03-30T03:50:19.908Z,12.20
2018-03-30T03:51:19.811Z,12.00
2018-03-30T03:52:19.713Z,12.40
2018-03-30T03:53:19.612Z,12.50
2018-03-30T03:54:19.543Z,12.40
2018-03-30T03:55:19.412Z,12.50
2018-03-30T03:56:19.323Z,12.60
2018-03-30T03:57:19.216Z,12.50
2018-03-30T03:58:19.164Z,12.40
2018-03-30T03:59:19.151Z,12.60
2018-03-30T04:00:18.920Z,12.50
2018-03-30T04:01:18.822Z,12.00
2018-03-30T04:02:18.724Z,13.30
2018-03-30T04:03:18.634Z,12.60
2018-03-30T04:04:18.553Z,12.30
2018-03-30T04:05:18.428Z,12.60
2018-03-30T04:06:18.420Z,12.30
2018-03-30T04:07:18.231Z,12.90
2018-03-30T04:08:18.130Z,13.00
2018-03-30T04:09:18.064Z,12.30
2018-03-30T04:10:17.932Z,12.80
2018-03-30T04:11:17.836Z,12.60
2018-03-30T04:12:17.738Z,12.50
2018-03-30T04:13:17.745Z,12.80
2018-03-30T04:14:17.571Z,12.70
2018-03-30T04:15:17.437Z,12.50
2018-03-30T04:16:17.341Z,12.40
2018-03-30T04:17:17.242Z,12.80
2018-03-30T04:18:17.143Z,12.60
2018-03-30T04:19:17.082Z,13.40
2018-03-30T04:20:17.040Z,13.40
2018-03-30T04:21:16.845Z,12.90
2018-03-30T04:22:16.747Z,12.70
2018-03-30T04:23:16.648Z,12.40
2018-03-30T04:24:16.580Z,12.50
2018-03-30T04:25:16.451Z,12.00
2018-03-30T04:26:16.353Z,13.00
2018-03-30T04:27:16.383Z,12.60
2018-03-30T04:28:16.154Z,12.30
2018-03-30T04:29:16.090Z,12.80
2018-03-30T04:30:15.960Z,12.50
2018-03-30T04:31:15.858Z,13.30
2018-03-30T04:32:15.760Z,12.90
2018-03-30T04:33:15.663Z,12.60
2018-03-30T04:34:15.691Z,13.00
2018-03-30T04:35:15.464Z,12.30
2018-03-30T04:36:15.363Z,12.80
2018-03-30T04:37:15.268Z,12.50
2018-03-30T04:38:15.168Z,13.10
2018-03-30T04:39:15.096Z,12.80
2018-03-30T04:40:15.072Z,12.40
2018-03-30T04:41:14.873Z,13.10
2018-03-30T04:42:14.772Z,13.20
2018-03-30T04:43:14.677Z,13.30
2018-03-30T04:44:14.577Z,12.90
2018-03-30T04:45:14.505Z,13.00
2018-03-30T04:46:14.379Z,13.50
2018-03-30T04:47:14.278Z,13.30
2018-03-30T04:48:14.182Z,13.70
2018-03-30T04:49:14.085Z,14.00
2018-03-30T04:50:14.018Z,14.00
2018-03-30T04:51:13.883Z,12.60
2018-03-30T04:52:13.786Z,13.10
2018-03-30T04:53:13.689Z,14.60
2018-03-30T04:54:13.587Z,13.70
2018-03-30T04:55:13.550Z,14.10
2018-03-30T04:56:13.437Z,13.70
2018-03-30T04:57:13.292Z,14.00
2018-03-30T04:58:13.192Z,13.80
2018-03-30T04:59:13.096Z,13.60
2018-03-30T05:00:13.029Z,13.90
2018-03-30T05:01:12.908Z,13.40
2018-03-30T05:02:12.796Z,13.00
2018-03-30T05:03:12.700Z,12.00
2018-03-30T05:04:12.597Z,12.20
2018-03-30T05:05:12.537Z,12.40
2018-03-30T05:06:12.403Z,12.20
2018-03-30T05:07:12.305Z,13.00
2018-03-30T05:08:12.206Z,12.60
2018-03-30T05:09:12.109Z,12.30
2018-03-30T05:10:12.038Z,12.80
2018-03-30T05:11:11.907Z,13.90
2018-03-30T05:12:11.809Z,13.80
2018-03-30T05:13:11.713Z,13.20
2018-03-30T05:14:11.613Z,14.20
2018-03-30T05:15:11.544Z,13.70
2018-03-30T05:16:11.413Z,13.10
2018-03-30T05:17:11.317Z,13.10
2018-03-30T05:18:11.216Z,13.90
2018-03-30T05:19:11.117Z,13.70
2018-03-30T05:20:11.063Z,13.50
2018-03-30T05:21:10.923Z,13.50
2018-03-30T05:22:10.821Z,13.10
2018-03-30T05:23:10.723Z,13.30
2018-03-30T05:24:10.621Z,13.60
2018-03-30T05:25:10.558Z,13.30
2018-03-30T05:26:10.428Z,13.00
2018-03-30T05:27:10.325Z,12.90
2018-03-30T05:28:10.226Z,12.90
2018-03-30T05:29:10.129Z,13.50
2018-03-30T05:30:10.061Z,13.10
2018-03-30T05:31:09.930Z,13.10
2018-03-30T05:32:09.830Z,12.30
2018-03-30T05:33:09.734Z,13.10
2018-03-30T05:34:09.636Z,12.50
2018-03-30T05:35:09.568Z,12.60
2018-03-30T05:36:09.438Z,12.30
2018-03-30T05:37:09.336Z,13.40
2018-03-30T05:38:09.240Z,12.60
2018-03-30T05:39:09.140Z,13.40
2018-03-30T05:40:09.080Z,12.50
2018-03-30T05:41:08.942Z,12.70
2018-03-30T05:42:08.845Z,12.60
2018-03-30T05:43:08.745Z,13.40
2018-03-30T05:44:08.648Z,12.70
2018-03-30T05:45:08.581Z,13.20
2018-03-30T05:46:08.449Z,11.70
2018-03-30T05:47:08.353Z,12.30
2018-03-30T05:48:08.250Z,12.20
2018-03-30T05:49:08.179Z,11.90
2018-03-30T05:50:08.085Z,12.20
2018-03-30T05:51:07.957Z,11.60
2018-03-30T05:52:07.867Z,11.80
2018-03-30T05:53:07.763Z,12.10
2018-03-30T05:54:07.662Z,11.40
2018-03-30T05:55:07.596Z,11.60
2018-03-30T05:56:07.473Z,11.60
2018-03-30T05:57:07.464Z,11.40
2018-03-30T05:58:07.276Z,11.40
2018-03-30T05:59:07.173Z,11.60
2018-03-30T06:00:07.074Z,10.90
2018-03-30T06:01:07.007Z,11.90
2018-03-30T06:02:06.879Z,11.30
2018-03-30T06:03:06.780Z,11.30
2018-03-30T06:04:06.778Z,11.70
2018-03-30T06:05:06.590Z,11.80
2018-03-30T06:06:06.519Z,11.30
2018-03-30T06:07:06.391Z,11.30
2018-03-30T06:08:06.330Z,11.40
2018-03-30T06:09:06.200Z,11.00
2018-03-30T06:10:06.104Z,11.00
2018-03-30T06:11:06.123Z,11.50
2018-03-30T06:12:05.901Z,11.80
2018-03-30T06:13:05.806Z,11.90
2018-03-30T06:14:05.709Z,11.00
2018-03-30T06:15:05.611Z,11.80
2018-03-30T06:16:05.547Z,11.30
2018-03-30T06:17:05.418Z,11.60
2018-03-30T06:18:05.427Z,11.20
2018-03-30T06:19:05.280Z,11.70
2018-03-30T06:20:05.132Z,11.60
2018-03-30T06:21:05.062Z,11.60
2018-03-30T06:22:04.933Z,11.80
2018-03-30T06:23:04.837Z,11.60
2018-03-30T06:24:04.737Z,11.80
2018-03-30T06:25:04.735Z,12.00
2018-03-30T06:26:04.580Z,11.70
2018-03-30T06:27:04.449Z,11.70
2018-03-30T06:28:04.351Z,12.00
2018-03-30T06:29:04.256Z,11.80
2018-03-30T06:30:04.159Z,12.00
2018-03-30T06:31:04.097Z,11.30
2018-03-30T06:32:04.060Z,11.30
2018-03-30T06:33:03.867Z,11.00
2018-03-30T06:34:03.768Z,11.60
2018-03-30T06:35:03.673Z,11.40
2018-03-30T06:36:03.610Z,11.20
2018-03-30T06:37:03.483Z,11.00
2018-03-30T06:38:03.387Z,11.30
2018-03-30T06:39:03.388Z,11.50
2018-03-30T06:40:03.198Z,12.60
2018-03-30T06:41:03.132Z,11.20
2018-03-30T06:42:03.002Z,11.50
2018-03-30T06:43:02.909Z,10.80
2018-03-30T06:44:02.820Z,11.40
2018-03-30T06:45:02.719Z,11.60
2018-03-30T06:46:02.751Z,10.40
2018-03-30T06:47:02.529Z,11.10
2018-03-30T06:48:02.444Z,10.30
2018-03-30T06:49:02.339Z,9.90
2018-03-30T06:50:02.242Z,10.90
2018-03-30T06:51:02.178Z,10.10
2018-03-30T06:52:02.054Z,11.20
2018-03-30T06:53:02.054Z,10.80
2018-03-30T06:54:01.870Z,9.90
2018-03-30T06:55:01.771Z,11.30
2018-03-30T06:56:01.710Z,10.60
2018-03-30T06:57:01.587Z,10.40
2018-03-30T06:58:01.489Z,11.00
2018-03-30T06:59:01.393Z,11.30
2018-03-30T07:00:01.395Z,10.70
2018-03-30T07:01:01.208Z,11.00
2018-03-30T07:02:01.144Z,11.80
2018-03-30T07:03:01.016Z,10.80
2018-03-30T07:04:00.924Z,11.90
2018-03-30T07:05:00.831Z,10.90
2018-03-30T07:06:00.739Z,11.20
2018-03-30T07:07:00.670Z,11.60
2018-03-30T07:08:00.547Z,11.80
2018-03-30T07:09:00.455Z,11.40
2018-03-30T07:10:00.359Z,11.90
2018-03-30T07:11:00.271Z,11.50
2018-03-30T07:12:00.201Z,10.90
2018-03-30T07:13:00.089Z,11.00
2018-03-30T07:13:59.989Z,10.70
2018-03-30T07:14:59.896Z,11.00
2018-03-30T07:15:59.799Z,10.80
2018-03-30T07:16:59.738Z,10.80
2018-03-30T07:17:59.611Z,11.10
2018-03-30T07:18:59.520Z,11.70
2018-03-30T07:19:59.430Z,11.40
2018-03-30T07:20:59.335Z,11.80
2018-03-30T07:21:59.271Z,11.60
2018-03-30T07:22:59.150Z,12.20
2018-03-30T07:23:59.057Z,11.60
2018-03-30T07:24:58.963Z,11.90
2018-03-30T07:25:58.871Z,13.20
2018-03-30T07:26:58.814Z,12.80
2018-03-30T07:27:58.686Z,12.40
2018-03-30T07:28:58.594Z,13.00
2018-03-30T07:29:58.500Z,13.50
2018-03-30T07:30:58.407Z,13.00
2018-03-30T07:31:58.347Z,14.30
2018-03-30T07:32:58.227Z,12.70
2018-03-30T07:33:58.131Z,13.20
2018-03-30T07:34:58.036Z,13.80
2018-03-30T07:35:57.944Z,14.30
2018-03-30T07:36:57.883Z,13.80
2018-03-30T07:37:57.756Z,14.50
2018-03-30T07:38:57.667Z,14.10
2018-03-30T07:39:57.571Z,14.60
2018-03-30T07:40:57.482Z,14.30
2018-03-30T07:41:57.419Z,14.00
2018-03-30T07:42:57.295Z,14.40
2018-03-30T07:43:57.202Z,14.60
2018-03-30T07:44:57.112Z,15.10
2018-03-30T07:45:57.022Z,14.10
2018-03-30T07:46:56.955Z,14.30
2018-03-30T07:47:56.832Z,13.80
2018-03-30T07:48:56.739Z,13.90
2018-03-30T07:49:56.647Z,13.40
2018-03-30T07:50:56.553Z,13.50
2018-03-30T07:51:56.494Z,13.00
2018-03-30T07:52:56.367Z,13.10
2018-03-30T07:53:56.274Z,13.40
2018-03-30T07:54:56.182Z,13.40
2018-03-30T07:55:56.087Z,13.10
2018-03-30T07:56:56.028Z,12.50
2018-03-30T07:57:55.904Z,13.40
2018-03-30T07:58:55.812Z,13.40
2018-03-30T07:59:55.724Z,12.40
2018-03-30T08:00:55.627Z,13.40
2018-03-30T08:01:55.563Z,12.00
2018-03-30T08:02:55.440Z,12.30
2018-03-30T08:03:55.352Z,12.60
2018-03-30T08:04:55.253Z,12.50
2018-03-30T08:05:55.161Z,12.40
2018-03-30T08:06:55.103Z,12.20
2018-03-30T08:07:54.980Z,12.50
2018-03-30T08:08:54.885Z,11.90
2018-03-30T08:09:54.793Z,11.90
2018-03-30T08:10:54.700Z,12.00
2018-03-30T08:11:54.610Z,11.30
2018-03-30T08:12:54.547Z,12.20
2018-03-30T08:13:54.426Z,10.90
2018-03-30T08:14:54.331Z,11.00
2018-03-30T08:15:54.315Z,12.20
2018-03-30T08:16:54.149Z,11.70
2018-03-30T08:17:54.088Z,11.90
2018-03-30T08:18:53.978Z,12.10
2018-03-30T08:19:53.871Z,12.30
2018-03-30T08:20:53.781Z,11.30
2018-03-30T08:21:53.693Z,11.50
2018-03-30T08:22:53.718Z,11.90
2018-03-30T08:23:53.506Z,11.40
2018-03-30T08:24:53.415Z,10.80
2018-03-30T08:25:53.324Z,10.70
2018-03-30T08:26:53.232Z,10.80
2018-03-30T08:27:53.174Z,11.20
2018-03-30T08:28:53.047Z,11.50
2018-03-30T08:29:53.049Z,10.90
2018-03-30T08:30:52.874Z,10.80
2018-03-30T08:31:52.778Z,10.70
2018-03-30T08:32:52.722Z,10.70
2018-03-30T08:33:52.599Z,11.10
2018-03-30T08:34:52.505Z,11.00
2018-03-30T08:35:52.416Z,10.20
2018-03-30T08:36:52.427Z,10.50
2018-03-30T08:37:52.262Z,10.30
2018-03-30T08:38:52.147Z,10.90
2018-03-30T08:39:52.054Z,11.00
2018-03-30T08:40:51.966Z,10.50
2018-03-30T08:41:51.876Z,10.00
2018-03-30T08:42:51.811Z,10.10
2018-03-30T08:43:51.788Z,10.40
2018-03-30T08:44:51.599Z,10.50
2018-03-30T08:45:51.512Z,10.10
2018-03-30T08:46:51.423Z,10.00
2018-03-30T08:47:51.368Z,10.20
2018-03-30T08:48:51.243Z,9.80
2018-03-30T08:49:51.155Z,9.60
2018-03-30T08:50:51.162Z,10.00
2018-03-30T08:51:50.974Z,10.00
2018-03-30T08:52:50.920Z,9.90
2018-03-30T08:53:50.801Z,8.60
2018-03-30T08:54:50.702Z,9.10
2018-03-30T08:55:50.616Z,9.50
2018-03-30T08:56:50.527Z,10.10
2018-03-30T08:57:50.472Z,9.30
2018-03-30T08:58:50.347Z,9.00
2018-03-30T08:59:50.257Z,9.80
2018-03-30T09:00:50.168Z,9.10
2018-03-30T09:01:50.082Z,8.90
2018-03-30T09:02:50.022Z,8.60
2018-03-30T09:03:49.904Z,9.10
2018-03-30T09:04:49.814Z,8.60
2018-03-30T09:05:49.726Z,9.20
2018-03-30T09:06:49.637Z,9.90
2018-03-30T09:07:49.584Z,9.20
2018-03-30T09:08:49.458Z,9.60
2018-03-30T09:09:49.371Z,9.80
2018-03-30T09:10:49.285Z,9.60
2018-03-30T09:11:49.197Z,9.80
2018-03-30T09:12:49.247Z,10.10
2018-03-30T09:13:49.017Z,10.10
2018-03-30T09:14:48.930Z,9.20
2018-03-30T09:15:48.842Z,10.00
2018-03-30T09:16:48.755Z,9.40
2018-03-30T09:17:48.698Z,9.00
2018-03-30T09:18:48.577Z,10.00
2018-03-30T09:19:48.581Z,10.10
2018-03-30T09:20:48.400Z,9.30
2018-03-30T09:21:48.311Z,9.70
2018-03-30T09:22:48.225Z,9.60
2018-03-30T09:23:48.165Z,9.70
2018-03-30T09:24:48.048Z,9.60
2018-03-30T09:25:47.960Z,9.90
2018-03-30T09:26:47.967Z,9.50
2018-03-30T09:27:47.785Z,9.00
2018-03-30T09:28:47.729Z,9.30
2018-03-30T09:29:47.609Z,9.10
2018-03-30T09:30:47.519Z,9.20
2018-03-30T09:31:47.436Z,8.90
2018-03-30T09:32:47.350Z,8.90
2018-03-30T09:33:47.382Z,8.50
2018-03-30T09:34:47.168Z,8.20
2018-03-30T09:35:47.083Z,8.10
2018-03-30T09:36:46.997Z,7.70
2018-03-30T09:37:46.908Z,7.60
2018-03-30T09:38:46.894Z,8.40
2018-03-30T09:39:46.731Z,7.80
2018-03-30T09:40:46.734Z,8.30
2018-03-30T09:41:46.556Z,6.90
2018-03-30T09:42:46.467Z,7.90
2018-03-30T09:43:46.412Z,8.30
2018-03-30T09:44:46.296Z,7.80
2018-03-30T09:45:46.207Z,8.10
2018-03-30T09:46:46.122Z,7.40
2018-03-30T09:47:46.126Z,7.90
2018-03-30T09:48:45.977Z,7.50
2018-03-30T09:49:45.859Z,7.90
2018-03-30T09:50:45.774Z,7.60
2018-03-30T09:51:45.687Z,7.80
2018-03-30T09:52:45.604Z,8.10
2018-03-30T09:53:45.547Z,7.80
2018-03-30T09:54:45.432Z,8.30
2018-03-30T09:55:45.343Z,8.20
2018-03-30T09:56:45.257Z,7.80
2018-03-30T09:57:45.165Z,7.70
2018-03-30T09:58:45.115Z,8.20
2018-03-30T09:59:45.002Z,9.20
2018-03-30T10:00:44.909Z,7.90
2018-03-30T10:01:44.823Z,8.10
2018-03-30T10:02:44.735Z,8.00
2018-03-30T10:03:44.684Z,8.10
2018-03-30T10:04:44.575Z,8.20
2018-03-30T10:05:44.492Z,8.00
2018-03-30T10:06:44.394Z,7.80
2018-03-30T10:07:44.311Z,7.80
2018-03-30T10:08:44.250Z,7.90
2018-03-30T10:09:44.131Z,7.60
2018-03-30T10:10:44.046Z,7.00
2018-03-30T10:11:43.978Z,8.10
2018-03-30T10:12:43.873Z,8.30
2018-03-30T10:13:43.817Z,7.60
2018-03-30T10:14:43.704Z,7.30
2018-03-30T10:15:43.614Z,7.80
2018-03-30T10:16:43.529Z,7.50
2018-03-30T10:17:43.444Z,7.30
2018-03-30T10:18:43.390Z,7.30
2018-03-30T10:19:43.274Z,7.20
2018-03-30T10:20:43.189Z,7.40
2018-03-30T10:21:43.100Z,7.40
2018-03-30T10:22:43.018Z,6.80
2018-03-30T10:23:42.962Z,7.00
2018-03-30T10:24:42.845Z,7.00
2018-03-30T10:25:42.759Z,6.50
2018-03-30T10:26:42.680Z,6.70
2018-03-30T10:27:42.601Z,6.10
2018-03-30T10:28:42.535Z,7.10
2018-03-30T10:29:42.415Z,6.70
2018-03-30T10:30:42.332Z,6.60
2018-03-30T10:31:42.250Z,6.70
2018-03-30T10:32:42.214Z,7.10
2018-03-30T10:33:42.078Z,6.50
2018-03-30T10:34:42.022Z,6.70
2018-03-30T10:35:41.905Z,6.70
2018-03-30T10:36:41.821Z,6.60
2018-03-30T10:37:41.731Z,6.50
2018-03-30T10:38:41.648Z,6.50
2018-03-30T10:39:41.592Z,6.70
2018-03-30T10:40:41.479Z,6.90
2018-03-30T10:41:41.390Z,6.50
2018-03-30T10:42:41.303Z,6.70
2018-03-30T10:43:41.221Z,6.70
2018-03-30T10:44:41.171Z,6.70
2018-03-30T10:45:41.049Z,6.60
2018-03-30T10:46:40.965Z,6.40
2018-03-30T10:47:40.881Z,6.40
2018-03-30T10:48:40.849Z,6.80
2018-03-30T10:49:40.746Z,6.00
2018-03-30T10:50:40.624Z,5.80
2018-03-30T10:51:40.539Z,5.90
2018-03-30T10:52:40.458Z,6.80
2018-03-30T10:53:40.370Z,6.70
2018-03-30T10:54:40.316Z,6.40
2018-03-30T10:55:40.200Z,6.00
2018-03-30T10:56:40.116Z,5.70
2018-03-30T10:57:40.029Z,5.30
2018-03-30T10:58:39.954Z,5.30
2018-03-30T10:59:39.910Z,5.40
2018-03-30T11:00:39.776Z,5.50
2018-03-30T11:01:39.690Z,5.50
2018-03-30T11:02:39.605Z,5.60
2018-03-30T11:03:39.611Z,5.60
2018-03-30T11:04:39.471Z,4.90
2018-03-30T11:05:39.354Z,5.10
2018-03-30T11:06:39.265Z,5.80
2018-03-30T11:07:39.186Z,5.40
2018-03-30T11:08:39.098Z,5.20
2018-03-30T11:09:39.041Z,5.60
2018-03-30T11:10:39.032Z,5.30
2018-03-30T11:11:38.848Z,5.00
2018-03-30T11:12:38.756Z,4.80
2018-03-30T11:13:38.668Z,5.20
2018-03-30T11:14:38.617Z,4.80
2018-03-30T11:15:38.502Z,5.10
2018-03-30T11:16:38.418Z,4.60
2018-03-30T11:17:38.422Z,5.10
2018-03-30T11:18:38.244Z,5.60
2018-03-30T11:19:38.192Z,5.40
2018-03-30T11:20:38.074Z,5.30
2018-03-30T11:21:37.990Z,5.00
2018-03-30T11:22:37.903Z,4.90
2018-03-30T11:23:37.817Z,4.50
2018-03-30T11:24:37.905Z,5.10
2018-03-30T11:25:37.649Z,4.60
2018-03-30T11:26:37.560Z,5.10
2018-03-30T11:27:37.477Z,5.00
2018-03-30T11:28:37.389Z,5.10
2018-03-30T11:29:37.334Z,5.00
2018-03-30T11:30:37.220Z,4.90
2018-03-30T11:31:37.226Z,5.10
2018-03-30T11:32:37.052Z,4.70
2018-03-30T11:33:36.963Z,5.40
2018-03-30T11:34:36.935Z,5.50
2018-03-30T11:35:36.794Z,5.30
2018-03-30T11:36:36.710Z,4.40
2018-03-30T11:37:36.621Z,4.60
2018-03-30T11:38:36.636Z,4.40
2018-03-30T11:39:36.482Z,4.30
2018-03-30T11:40:36.366Z,4.30
2018-03-30T11:41:36.283Z,5.20
2018-03-30T11:42:36.195Z,5.50
2018-03-30T11:43:36.111Z,4.50
2018-03-30T11:44:36.060Z,4.60
2018-03-30T11:45:36.045Z,4.30
2018-03-30T11:46:35.854Z,4.30
2018-03-30T11:47:35.772Z,4.00
2018-03-30T11:48:35.683Z,4.10
2018-03-30T11:49:35.600Z,3.80
2018-03-30T11:50:35.546Z,3.90
2018-03-30T11:51:35.437Z,3.50
2018-03-30T11:52:35.437Z,3.70
2018-03-30T11:53:35.258Z,3.90
2018-03-30T11:54:35.175Z,4.30
2018-03-30T11:55:35.121Z,3.90
2018-03-30T11:56:35.013Z,3.80
2018-03-30T11:57:34.927Z,4.30
2018-03-30T11:58:34.834Z,4.20
2018-03-30T11:59:34.844Z,4.30
2018-03-30T12:00:34.699Z,4.00
2018-03-30T12:01:34.579Z,3.40
2018-03-30T12:02:34.500Z,3.90
2018-03-30T12:03:34.410Z,3.80
2018-03-30T12:04:34.324Z,3.30
2018-03-30T12:05:34.359Z,3.40
2018-03-30T12:06:34.155Z,2.90
2018-03-30T12:07:34.076Z,3.30
2018-03-30T12:08:33.985Z,3.90
2018-03-30T12:09:33.899Z,3.70
2018-03-30T12:10:33.848Z,4.00
2018-03-30T12:11:33.730Z,3.90
2018-03-30T12:12:33.649Z,4.20
2018-03-30T12:13:33.665Z,3.80
2018-03-30T12:14:33.472Z,3.70
2018-03-30T12:15:33.422Z,4.00
2018-03-30T12:16:33.305Z,4.20
2018-03-30T12:17:33.219Z,3.90
2018-03-30T12:18:33.135Z,4.10
2018-03-30T12:19:33.047Z,4.00
2018-03-30T12:20:32.993Z,4.10
2018-03-30T12:21:32.912Z,3.70
2018-03-30T12:22:32.792Z,3.70
2018-03-30T12:23:32.706Z,3.60
2018-03-30T12:24:32.618Z,3.50
2018-03-30T12:25:32.566Z,3.60
2018-03-30T12:26:32.503Z,3.50
2018-03-30T12:27:32.422Z,3.60
2018-03-30T12:28:32.283Z,3.50
2018-03-30T12:29:32.225Z,3.50
2018-03-30T12:30:32.143Z,3.70
2018-03-30T12:31:32.025Z,4.20
2018-03-30T12:32:31.940Z,3.70
2018-03-30T12:33:31.859Z,3.80
2018-03-30T12:34:31.772Z,3.80
2018-03-30T12:35:31.714Z,3.90
2018-03-30T12:36:31.598Z,3.60
2018-03-30T12:37:31.513Z,3.50
2018-03-30T12:38:31.426Z,4.10
2018-03-30T12:39:31.345Z,4.00
2018-03-30T12:40:31.316Z,4.20
2018-03-30T12:41:31.172Z,4.60
2018-03-30T12:42:31.087Z,3.80
2018-03-30T12:43:31.000Z,3.90
2018-03-30T12:44:30.916Z,3.60
2018-03-30T12:45:30.865Z,3.90
2018-03-30T12:46:30.745Z,4.00
2018-03-30T12:47:30.665Z,3.90
2018-03-30T12:48:30.572Z,4.30
2018-03-30T12:49:30.486Z,3.70
2018-03-30T12:50:30.433Z,3.50
2018-03-30T12:51:30.313Z,4.20
2018-03-30T12:52:30.233Z,3.90
2018-03-30T12:53:30.147Z,3.90
2018-03-30T12:54:30.056Z,4.30
2018-03-30T12:55:30.005Z,4.00
2018-03-30T12:56:29.886Z,4.00
2018-03-30T12:57:29.800Z,3.40
2018-03-30T12:58:29.716Z,3.40
2018-03-30T12:59:29.630Z,3.50
2018-03-30T13:00:29.548Z,3.80
2018-03-30T13:01:29.494Z,3.70